createdAt,value
2018-03-29T21:13:22.975Z,5.30
2018-03-29T21:15:54.949Z,5.30
2018-03-29T21:18:23.033Z,5.30
2018-03-29T21:20:51.067Z,5.20
2018-03-29T21:23:19.099Z,5.20
2018-03-29T21:25:47.927Z,5.20
2018-03-29T21:28:15.955Z,5.20
2018-03-29T21:30:55.943Z,5.20
2018-03-29T21:33:23.972Z,5.20
2018-03-29T21:35:52.810Z,5.10
2018-03-29T21:38:20.839Z,5.10
2018-03-29T21:40:48.880Z,5.20
2018-03-29T21:43:16.908Z,5.10
2018-03-29T21:45:44.981Z,5.10
2018-03-29T21:48:13.004Z,5.10
2018-03-29T21:50:41.033Z,5.10
2018-03-29T21:53:09.062Z,5.10
2018-03-29T21:55:37.095Z,5.10
2018-03-29T21:58:05.122Z,5.10
2018-03-29T22:00:33.168Z,5.20
2018-03-29T22:03:01.208Z,5.20
2018-03-29T22:05:29.947Z,5.20
2018-03-29T22:07:57.987Z,5.20
2018-03-29T22:10:26.015Z,5.20
2018-03-29T22:13:07.876Z,5.10
2018-03-29T22:15:36.703Z,5.10
2018-03-29T22:18:04.740Z,5.10
2018-03-29T22:20:33.547Z,5.10
2018-03-29T22:23:01.576Z,5.10
2018-03-29T22:25:29.636Z,5.10
2018-03-29T22:27:57.659Z,5.10
2018-03-29T22:30:25.703Z,5.10
2018-03-29T22:32:53.723Z,5.00
2018-03-29T22:35:21.770Z,5.00
2018-03-29T22:37:49.810Z,5.00
2018-03-29T22:40:17.848Z,5.00
2018-03-29T22:42:45.916Z,5.00
2018-03-29T22:45:13.960Z,4.90
2018-03-29T22:47:42.015Z,4.90
2018-03-29T22:50:10.051Z,4.90
2018-03-29T22:52:38.079Z,4.90
2018-03-29T22:55:06.132Z,4.80
2018-03-29T22:57:34.185Z,4.80
2018-03-29T23:00:02.244Z,4.80
2018-03-29T23:02:30.295Z,4.90
2018-03-29T23:04:58.345Z,4.90
2018-03-29T23:07:26.388Z,4.90
2018-03-29T23:09:55.191Z,4.90
2018-03-29T23:12:23.231Z,4.90
2018-03-29T23:14:51.263Z,4.90
2018-03-29T23:17:19.328Z,4.90
2018-03-29T23:19:47.367Z,4.90
2018-03-29T23:22:15.400Z,4.90
2018-03-29T23:24:43.434Z,4.80
2018-03-29T23:27:11.471Z,4.70
2018-03-29T23:29:39.499Z,4.70
2018-03-29T23:32:07.540Z,4.70
2018-03-29T23:34:35.576Z,4.60
2018-03-29T23:37:03.608Z,4.60
2018-03-29T23:39:31.658Z,4.60
2018-03-29T23:41:59.683Z,4.60
2018-03-29T23:44:27.711Z,4.50
2018-03-29T23:46:55.759Z,4.50
2018-03-29T23:49:31.630Z,4.50
2018-03-29T23:51:59.722Z,4.40
2018-03-29T23:54:27.774Z,4.30
2018-03-29T23:56:55.819Z,4.30
2018-03-29T23:59:23.863Z,4.20
